createdAt,value
2017-08-22T00:01:04.575Z,1017.58
2017-08-22T00:02:14.497Z,1017.59
2017-08-22T00:03:23.820Z,1017.62
2017-08-22T00:04:33.739Z,1017.62
2017-08-22T00:05:43.666Z,1017.63
2017-08-22T00:06:53.585Z,1017.65
2017-08-22T00:08:03.499Z,1017.66
2017-08-22T00:09:13.416Z,1017.65
2017-08-22T00:10:23.174Z,1017.6
2017-08-22T00:11:32.773Z,1017.64
2017-08-22T00:12:42.693Z,1017.65
2017-08-22T00:13:52.637Z,1017.59
2017-08-22T00:15:02.569Z,1017.59
2017-08-22T00:16:12.584Z,1017.57
2017-08-22T00:17:21.884Z,1017.61
2017-08-22T00:18:31.799Z,1017.6
2017-08-22T00:19:41.706Z,1017.59
2017-08-22T00:20:51.948Z,1017.55
2017-08-22T00:22:01.865Z,1017.59
2017-08-22T00:23:11.790Z,1017.62
2017-08-22T00:24:21.733Z,1017.6
2017-08-22T00:25:31.990Z,1017.64
2017-08-22T00:26:41.305Z,1017.6
2017-08-22T00:27:51.362Z,1017.58
2017-08-22T00:29:00.958Z,1017.53
2017-08-22T00:30:10.569Z,1017.56
2017-08-22T00:31:20.798Z,1017.52
2017-08-22T00:32:30.713Z,1017.49
2017-08-22T00:33:40.473Z,1017.52
2017-08-22T00:34:49.781Z,1017.49
2017-08-22T00:35:59.996Z,1017.54
2017-08-22T00:37:09.925Z,1017.52
2017-08-22T00:38:19.529Z,1017.5
2017-08-22T00:39:29.470Z,1017.51
2017-08-22T00:40:39.398Z,1017.49
2017-08-22T00:41:49.649Z,1017.47
2017-08-22T00:42:59.563Z,1017.47
2017-08-22T00:44:09.518Z,1017.47
2017-08-22T00:45:19.855Z,1017.49
2017-08-22T00:46:29.464Z,1017.45
2017-08-22T00:47:38.780Z,1017.42
2017-08-22T00:48:48.421Z,1017.44
2017-08-22T00:49:58.325Z,1017.47
2017-08-22T00:51:08.298Z,1017.46
2017-08-22T00:52:17.901Z,1017.48
2017-08-22T00:53:27.824Z,1017.49
2017-08-22T00:54:38.065Z,1017.49
2017-08-22T00:55:48.297Z,1017.46
2017-08-22T00:56:58.215Z,1017.5
2017-08-22T00:58:08.130Z,1017.53
2017-08-22T00:59:18.394Z,1017.54
2017-08-22T01:00:28.312Z,1017.56
2017-08-22T01:01:38.553Z,1017.55
2017-08-22T01:02:48.330Z,1017.58
2017-08-22T01:03:58.551Z,1017.59
2017-08-22T01:05:08.157Z,1017.6
2017-08-22T01:06:17.763Z,1017.6
2017-08-22T01:07:27.665Z,1017.63
2017-08-22T01:08:38.039Z,1017.68
2017-08-22T01:09:48.257Z,1017.64
2017-08-22T01:10:57.855Z,1017.64
2017-08-22T01:12:07.465Z,1017.65
2017-08-22T01:13:17.074Z,1017.67
2017-08-22T01:14:27.634Z,1017.65
2017-08-22T01:15:37.252Z,1017.72
2017-08-22T01:16:46.875Z,1017.7
2017-08-22T01:17:56.781Z,1017.71
2017-08-22T01:19:06.717Z,1017.75
2017-08-22T01:20:16.807Z,1017.73
2017-08-22T01:21:26.430Z,1017.72
2017-08-22T01:22:36.657Z,1017.74
2017-08-22T01:23:46.274Z,1017.72
2017-08-22T01:24:56.206Z,1017.74
2017-08-22T01:26:05.919Z,1017.7
2017-08-22T01:27:15.844Z,1017.7
2017-08-22T01:28:25.447Z,1017.69
2017-08-22T01:29:35.393Z,1017.67
2017-08-22T01:30:45.316Z,1017.67
2017-08-22T01:31:54.953Z,1017.71
2017-08-22T01:33:05.185Z,1017.66
2017-08-22T01:34:15.115Z,1017.63
2017-08-22T01:35:25.339Z,1017.62
2017-08-22T01:36:34.965Z,1017.65
2017-08-22T01:37:45.056Z,1017.62
2017-08-22T01:38:55.277Z,1017.59
2017-08-22T01:40:05.186Z,1017.61
2017-08-22T01:41:15.407Z,1017.6
2017-08-22T01:42:25.032Z,1017.6
2017-08-22T01:43:35.080Z,1017.63
2017-08-22T01:44:44.987Z,1017.6
2017-08-22T01:45:55.224Z,1017.56
2017-08-22T01:47:05.140Z,1017.58
2017-08-22T01:48:15.055Z,1017.55
2017-08-22T01:49:25.416Z,1017.53
2017-08-22T01:50:35.039Z,1017.57
2017-08-22T01:51:45.255Z,1017.53
2017-08-22T01:52:55.475Z,1017.48
2017-08-22T01:54:05.383Z,1017.52
2017-08-22T01:55:15.459Z,1017.54
2017-08-22T01:56:25.703Z,1017.48
2017-08-22T01:57:35.621Z,1017.5
2017-08-22T01:58:45.845Z,1017.45
2017-08-22T01:59:55.478Z,1017.46
2017-08-22T02:01:05.706Z,1017.5
2017-08-22T02:02:15.994Z,1017.49
2017-08-22T02:03:26.246Z,1017.44
2017-08-22T02:04:36.531Z,1017.46
2017-08-22T02:05:46.439Z,1017.47
2017-08-22T02:06:56.498Z,1017.44
2017-08-22T02:08:06.106Z,1017.43
2017-08-22T02:09:16.339Z,1017.47
2017-08-22T02:10:26.236Z,1017.5
2017-08-22T02:11:36.159Z,1017.49
2017-08-22T02:12:46.131Z,1017.45
2017-08-22T02:13:55.748Z,1017.52
2017-08-22T02:15:05.990Z,1017.52
2017-08-22T02:16:15.615Z,1017.55
2017-08-22T02:17:25.521Z,1017.53
2017-08-22T02:18:36.038Z,1017.55
2017-08-22T02:19:46.265Z,1017.54
2017-08-22T02:20:55.875Z,1017.52
2017-08-22T02:22:05.802Z,1017.55
2017-08-22T02:23:15.435Z,1017.56
2017-08-22T02:24:25.045Z,1017.52
2017-08-22T02:25:35.299Z,1017.51
2017-08-22T02:26:44.593Z,1017.52
2017-08-22T02:27:54.824Z,1017.5
2017-08-22T02:29:04.444Z,1017.57
2017-08-22T02:30:14.517Z,1017.51
2017-08-22T02:31:24.460Z,1017.52
2017-08-22T02:32:34.386Z,1017.5
2017-08-22T02:33:43.696Z,1017.49
2017-08-22T02:34:52.733Z,1017.5
2017-08-22T02:36:02.815Z,1017.51
2017-08-22T02:37:12.440Z,1017.52
2017-08-22T02:38:22.052Z,1017.53
2017-08-22T02:39:31.983Z,1017.5
2017-08-22T02:40:41.595Z,1017.47
2017-08-22T02:41:51.685Z,1017.48
2017-08-22T02:43:01.316Z,1017.44
2017-08-22T02:44:11.560Z,1017.43
2017-08-22T02:45:21.798Z,1017.37
2017-08-22T02:46:31.414Z,1017.37
2017-08-22T02:47:41.438Z,1017.35
2017-08-22T02:48:51.675Z,1017.36
2017-08-22T02:50:01.612Z,1017.38
2017-08-22T02:51:11.542Z,1017.37
2017-08-22T02:52:21.464Z,1017.39
2017-08-22T02:53:31.241Z,1017.39
2017-08-22T02:54:40.872Z,1017.37
2017-08-22T02:55:50.835Z,1017.39
2017-08-22T02:57:00.775Z,1017.43
2017-08-22T02:58:11.023Z,1017.46
2017-08-22T02:59:21.263Z,1017.43
2017-08-22T03:00:30.904Z,1017.4
2017-08-22T03:01:40.522Z,1017.35
2017-08-22T03:02:50.428Z,1017.33
2017-08-22T03:04:00.363Z,1017.37
2017-08-22T03:05:10.604Z,1017.33
2017-08-22T03:06:20.222Z,1017.37
2017-08-22T03:07:30.158Z,1017.36
2017-08-22T03:08:40.370Z,1017.32
2017-08-22T03:09:50.286Z,1017.31
2017-08-22T03:11:00.511Z,1017.3
2017-08-22T03:12:10.750Z,1017.3
2017-08-22T03:13:20.375Z,1017.33
2017-08-22T03:14:30.306Z,1017.31
2017-08-22T03:15:40.540Z,1017.3
2017-08-22T03:16:50.577Z,1017.3
2017-08-22T03:17:59.919Z,1017.31
2017-08-22T03:19:09.541Z,1017.3
2017-08-22T03:20:19.169Z,1017.31
2017-08-22T03:21:29.094Z,1017.3
2017-08-22T03:22:38.266Z,1017.29
2017-08-22T03:23:47.877Z,1017.34
2017-08-22T03:24:58.110Z,1017.34
2017-08-22T03:26:08.331Z,1017.39
2017-08-22T03:27:17.948Z,1017.38
2017-08-22T03:28:28.337Z,1017.36
2017-08-22T03:29:38.559Z,1017.37
2017-08-22T03:30:48.496Z,1017.33
2017-08-22T03:31:58.418Z,1017.36
2017-08-22T03:33:07.732Z,1017.35
2017-08-22T03:34:17.385Z,1017.35
2017-08-22T03:35:27.615Z,1017.33
2017-08-22T03:36:37.852Z,1017.36
2017-08-22T03:37:47.791Z,1017.37
2017-08-22T03:38:58.058Z,1017.38
2017-08-22T03:40:08.115Z,1017.37
2017-08-22T03:41:18.038Z,1017.4
2017-08-22T03:42:27.983Z,1017.42
2017-08-22T03:43:37.911Z,1017.4
2017-08-22T03:44:48.158Z,1017.41
2017-08-22T03:45:58.253Z,1017.39
2017-08-22T03:47:07.863Z,1017.45
2017-08-22T03:48:17.799Z,1017.43
2017-08-22T03:49:27.408Z,1017.46
2017-08-22T03:50:37.639Z,1017.44
2017-08-22T03:51:47.417Z,1017.41
2017-08-22T03:52:57.642Z,1017.41
2017-08-22T03:54:07.558Z,1017.43
2017-08-22T03:55:17.788Z,1017.44
2017-08-22T03:56:27.400Z,1017.44
2017-08-22T03:57:37.341Z,1017.39
2017-08-22T03:58:46.959Z,1017.41
2017-08-22T03:59:56.888Z,1017.38
2017-08-22T04:01:07.111Z,1017.33
2017-08-22T04:02:16.770Z,1017.35
2017-08-22T04:03:26.685Z,1017.3
2017-08-22T04:04:36.614Z,1017.38
2017-08-22T04:08:18.890Z,1017.35
2017-08-22T04:09:28.921Z,1017.33
2017-08-22T04:10:39.153Z,1017.29
2017-08-22T04:11:49.372Z,1017.23
2017-08-22T04:12:59.285Z,1017.19
2017-08-22T04:14:09.552Z,1017.21
2017-08-22T04:15:19.463Z,1017.21
2017-08-22T04:16:29.366Z,1017.24
2017-08-22T04:17:38.670Z,1017.29
2017-08-22T04:18:48.584Z,1017.26
2017-08-22T04:19:58.643Z,1017.24
2017-08-22T04:21:08.549Z,1017.25
2017-08-22T04:22:18.464Z,1017.26
2017-08-22T04:23:28.069Z,1017.28
2017-08-22T04:24:37.995Z,1017.28
2017-08-22T04:25:48.289Z,1017.36
2017-08-22T04:26:58.225Z,1017.38
2017-08-22T04:28:07.842Z,1017.44
2017-08-22T04:29:17.773Z,1017.46
2017-08-22T04:30:27.401Z,1017.39
2017-08-22T04:31:37.379Z,1017.41
2017-08-22T04:32:47.303Z,1017.36
2017-08-22T04:33:57.249Z,1017.37
2017-08-22T04:35:06.875Z,1017.35
2017-08-22T04:36:16.809Z,1017.37
2017-08-22T04:37:27.205Z,1017.36
2017-08-22T04:38:37.454Z,1017.37
2017-08-22T04:39:47.051Z,1017.33
2017-08-22T04:40:56.983Z,1017.35
2017-08-22T04:42:06.599Z,1017.36
2017-08-22T04:43:16.827Z,1017.34
2017-08-22T04:44:27.040Z,1017.34
2017-08-22T04:45:36.676Z,1017.34
2017-08-22T04:46:46.606Z,1017.34
2017-08-22T04:47:56.222Z,1017.32
2017-08-22T04:49:06.303Z,1017.36
2017-08-22T04:50:15.949Z,1017.37
2017-08-22T04:51:26.171Z,1017.34
2017-08-22T04:52:36.390Z,1017.34
2017-08-22T04:53:46.614Z,1017.37
2017-08-22T04:54:56.588Z,1017.36
2017-08-22T04:56:05.885Z,1017.39
2017-08-22T04:57:15.501Z,1017.42
2017-08-22T04:58:25.416Z,1017.41
2017-08-22T04:59:35.671Z,1017.41
2017-08-22T05:00:46.216Z,1017.42
2017-08-22T05:01:56.463Z,1017.43
2017-08-22T05:03:06.385Z,1017.41
2017-08-22T05:04:15.993Z,1017.36
2017-08-22T05:05:24.998Z,1017.36
2017-08-22T05:06:34.456Z,1017.38
2017-08-22T05:07:44.685Z,1017.35
2017-08-22T05:08:54.314Z,1017.37
2017-08-22T05:10:03.936Z,1017.33
2017-08-22T05:11:13.240Z,1017.32
2017-08-22T05:12:23.190Z,1017.31
2017-08-22T05:13:33.126Z,1017.36
2017-08-22T05:14:43.058Z,1017.32
2017-08-22T05:15:53.284Z,1017.35
2017-08-22T05:17:02.588Z,1017.37
2017-08-22T05:18:12.854Z,1017.38
2017-08-22T05:19:22.771Z,1017.38
2017-08-22T05:20:32.673Z,1017.37
2017-08-22T05:21:42.593Z,1017.41
2017-08-22T05:22:52.203Z,1017.39
2017-08-22T05:24:02.115Z,1017.37
2017-08-22T05:25:12.045Z,1017.41
2017-08-22T05:26:22.272Z,1017.36
2017-08-22T05:27:31.882Z,1017.33
2017-08-22T05:28:41.806Z,1017.3
2017-08-22T05:29:51.746Z,1017.33
2017-08-22T05:31:01.369Z,1017.32
2017-08-22T05:32:11.579Z,1017.3
2017-08-22T05:33:21.499Z,1017.27
2017-08-22T05:34:30.802Z,1017.26
2017-08-22T05:35:41.024Z,1017.19
2017-08-22T05:36:50.944Z,1017.19
2017-08-22T05:38:01.189Z,1017.23
2017-08-22T05:39:11.404Z,1017.19
2017-08-22T05:40:21.626Z,1017.19
2017-08-22T05:41:31.232Z,1017.23
2017-08-22T05:42:40.579Z,1017.22
2017-08-22T05:43:50.241Z,1017.19
2017-08-22T05:45:00.464Z,1017.15
2017-08-22T05:46:09.773Z,1017.19
2017-08-22T05:47:19.677Z,1017.24
2017-08-22T05:48:29.609Z,1017.27
2017-08-22T05:49:39.830Z,1017.31
2017-08-22T05:50:49.797Z,1017.31
2017-08-22T05:52:01.144Z,1017.3
2017-08-22T05:53:11.169Z,1017.32
2017-08-22T05:54:20.779Z,1017.25
2017-08-22T05:55:31.010Z,1017.31
2017-08-22T05:56:40.617Z,1017.33
2017-08-22T05:57:50.540Z,1017.36
2017-08-22T05:59:00.153Z,1017.38
2017-08-22T06:00:10.092Z,1017.37
2017-08-22T06:01:19.700Z,1017.37
2017-08-22T06:02:29.917Z,1017.38
2017-08-22T06:03:39.853Z,1017.41
2017-08-22T06:04:50.167Z,1017.37
2017-08-22T06:06:00.402Z,1017.42
2017-08-22T06:07:10.018Z,1017.38
2017-08-22T06:08:19.934Z,1017.4
2017-08-22T06:09:30.159Z,1017.41
2017-08-22T06:10:39.780Z,1017.4
2017-08-22T06:11:49.413Z,1017.41
2017-08-22T06:12:59.329Z,1017.38
2017-08-22T06:14:08.936Z,1017.42
2017-08-22T06:15:18.546Z,1017.41
2017-08-22T06:16:28.519Z,1017.42
2017-08-22T06:17:38.464Z,1017.4
2017-08-22T06:18:47.769Z,1017.39
2017-08-22T06:19:57.999Z,1017.35
2017-08-22T06:21:07.304Z,1017.32
2017-08-22T06:22:17.081Z,1017.31
2017-08-22T06:23:26.994Z,1017.31
2017-08-22T06:24:36.304Z,1017.27
2017-08-22T06:25:46.235Z,1017.26
2017-08-22T06:26:56.142Z,1017.29
2017-08-22T06:28:06.517Z,1017.28
2017-08-22T06:29:16.752Z,1017.25
2017-08-22T06:30:26.055Z,1017.26
2017-08-22T06:31:35.385Z,1017.26
2017-08-22T06:32:45.307Z,1017.24
2017-08-22T06:33:55.388Z,1017.24
2017-08-22T06:35:05.608Z,1017.26
2017-08-22T06:36:15.862Z,1017.24
2017-08-22T06:37:26.111Z,1017.26
2017-08-22T06:38:35.432Z,1017.29
2017-08-22T06:39:45.348Z,1017.3
2017-08-22T06:40:54.972Z,1017.3
2017-08-22T06:42:05.204Z,1017.29
2017-08-22T06:43:15.444Z,1017.3
2017-08-22T06:44:25.697Z,1017.32
2017-08-22T06:45:35.466Z,1017.3
2017-08-22T06:46:45.699Z,1017.33
2017-08-22T06:47:55.948Z,1017.3
2017-08-22T06:49:05.589Z,1017.29
2017-08-22T06:50:15.842Z,1017.28
2017-08-22T06:51:25.926Z,1017.26
2017-08-22T06:52:35.564Z,1017.32
2017-08-22T06:53:45.818Z,1017.31
2017-08-22T06:54:55.732Z,1017.31
2017-08-22T06:56:05.653Z,1017.34
2017-08-22T06:57:16.049Z,1017.36
2017-08-22T06:58:25.700Z,1017.37
2017-08-22T06:59:35.950Z,1017.36
2017-08-22T07:00:45.582Z,1017.38
2017-08-22T07:01:55.506Z,1017.39
2017-08-22T07:03:05.415Z,1017.4
2017-08-22T07:04:15.031Z,1017.43
2017-08-22T07:05:25.558Z,1017.43
2017-08-22T07:06:35.484Z,1017.48
2017-08-22T07:07:45.114Z,1017.49
2017-08-22T07:08:54.437Z,1017.48
2017-08-22T07:10:04.353Z,1017.46
2017-08-22T07:11:14.573Z,1017.47
2017-08-22T07:12:24.806Z,1017.46
2017-08-22T07:13:35.038Z,1017.48
2017-08-22T07:14:45.267Z,1017.51
2017-08-22T07:15:55.184Z,1017.51
2017-08-22T07:17:04.804Z,1017.49
2017-08-22T07:18:14.739Z,1017.46
2017-08-22T07:19:24.066Z,1017.43
2017-08-22T07:20:33.985Z,1017.5
2017-08-22T07:21:44.141Z,1017.46
2017-08-22T07:22:54.372Z,1017.47
2017-08-22T07:24:04.298Z,1017.48
2017-08-22T07:25:13.925Z,1017.46
2017-08-22T07:26:23.839Z,1017.47
2017-08-22T07:27:34.085Z,1017.42
2017-08-22T07:28:44.340Z,1017.45
2017-08-22T07:29:53.957Z,1017.4
2017-08-22T07:31:04.180Z,1017.4
2017-08-22T07:32:13.537Z,1017.37
2017-08-22T07:33:22.853Z,1017.36
2017-08-22T07:34:33.081Z,1017.34
2017-08-22T07:35:42.702Z,1017.38
2017-08-22T07:36:52.924Z,1017.36
2017-08-22T07:38:03.252Z,1017.41
2017-08-22T07:39:12.872Z,1017.36
2017-08-22T07:40:22.808Z,1017.37
2017-08-22T07:41:32.722Z,1017.31
2017-08-22T07:42:42.340Z,1017.32
2017-08-22T07:43:52.688Z,1017.29
2017-08-22T07:45:02.918Z,1017.27
2017-08-22T07:46:13.229Z,1017.34
2017-08-22T07:47:23.146Z,1017.28
2017-08-22T07:48:32.452Z,1017.32
2017-08-22T07:49:42.541Z,1017.34
2017-08-22T07:50:52.467Z,1017.38
2017-08-22T07:52:02.719Z,1017.31
2017-08-22T07:53:11.710Z,1017.32
2017-08-22T07:54:21.342Z,1017.36
2017-08-22T07:55:31.276Z,1017.33
2017-08-22T07:56:41.199Z,1017.36
2017-08-22T07:57:51.427Z,1017.34
2017-08-22T07:59:01.038Z,1017.34
2017-08-22T08:00:11.277Z,1017.35
2017-08-22T08:01:21.213Z,1017.32
2017-08-22T08:02:30.509Z,1017.28
2017-08-22T08:03:40.448Z,1017.28
2017-08-22T08:04:50.709Z,1017.29
2017-08-22T08:06:00.619Z,1017.3
2017-08-22T08:07:10.542Z,1017.23
2017-08-22T08:08:20.763Z,1017.27
2017-08-22T08:09:30.990Z,1017.23
2017-08-22T08:10:41.236Z,1017.27
2017-08-22T08:11:50.856Z,1017.25
2017-08-22T08:13:00.766Z,1017.24
2017-08-22T08:14:10.393Z,1017.23
2017-08-22T08:15:20.318Z,1017.24
2017-08-22T08:16:29.942Z,1017.2
2017-08-22T08:17:40.175Z,1017.23
2017-08-22T08:18:50.101Z,1017.21
2017-08-22T08:20:00.341Z,1017.19
2017-08-22T08:21:09.964Z,1017.27
2017-08-22T08:22:19.947Z,1017.25
2017-08-22T08:23:29.617Z,1017.26
2017-08-22T08:24:39.694Z,1017.28
2017-08-22T08:25:49.002Z,1017.26
2017-08-22T08:26:59.223Z,1017.26
2017-08-22T08:28:08.227Z,1017.26
2017-08-22T08:29:18.149Z,1017.24
2017-08-22T08:30:28.093Z,1017.18
2017-08-22T08:31:37.732Z,1017.25
2017-08-22T08:32:47.657Z,1017.23
2017-08-22T08:33:57.565Z,1017.25
2017-08-22T08:35:07.178Z,1017.2
2017-08-22T08:36:17.097Z,1017.24
2017-08-22T08:37:27.337Z,1017.23
2017-08-22T08:38:37.275Z,1017.21
2017-08-22T08:39:47.512Z,1017.2
2017-08-22T08:40:57.427Z,1017.19
2017-08-22T08:42:07.496Z,1017.19
2017-08-22T08:43:17.107Z,1017.19
2017-08-22T08:44:26.745Z,1017.2
2017-08-22T08:45:36.682Z,1017.14
2017-08-22T08:46:46.902Z,1017.15
2017-08-22T08:47:56.995Z,1017.12
2017-08-22T08:49:06.910Z,1017.16
2017-08-22T08:50:17.131Z,1017.09
2017-08-22T08:51:27.101Z,1017.09
2017-08-22T08:52:37.026Z,1017.1
2017-08-22T08:53:46.484Z,1017.11
2017-08-22T08:54:56.407Z,1017.11
2017-08-22T08:56:06.642Z,1017.07
2017-08-22T08:57:15.955Z,1017.09
2017-08-22T08:58:25.873Z,1017.06
2017-08-22T08:59:35.851Z,1017.1
2017-08-22T09:00:46.073Z,1017.08
2017-08-22T09:01:55.378Z,1017.09
2017-08-22T09:03:05.599Z,1017.04
2017-08-22T09:04:15.526Z,1017.05
2017-08-22T09:05:25.565Z,1017.04
2017-08-22T09:06:35.484Z,1016.98
2017-08-22T09:07:45.437Z,1016.96
2017-08-22T09:08:55.670Z,1016.94
2017-08-22T09:10:05.616Z,1016.97
2017-08-22T09:11:15.874Z,1016.99
2017-08-22T09:12:26.109Z,1017
2017-08-22T09:13:36.334Z,1017.01
2017-08-22T09:14:45.354Z,1016.98
2017-08-22T09:15:55.003Z,1016.95
2017-08-22T09:17:05.022Z,1016.97
2017-08-22T09:18:14.942Z,1016.93
2017-08-22T09:19:24.248Z,1016.93
2017-08-22T09:20:34.171Z,1016.89
2017-08-22T09:21:44.503Z,1016.9
2017-08-22T09:22:55.025Z,1016.92
2017-08-22T09:24:04.949Z,1016.93
2017-08-22T09:25:14.571Z,1016.94
2017-08-22T09:26:24.829Z,1016.94
2017-08-22T09:27:34.765Z,1016.91
2017-08-22T09:28:45.037Z,1016.9
2017-08-22T09:29:54.954Z,1016.92
2017-08-22T09:31:04.583Z,1016.88
2017-08-22T09:32:14.505Z,1016.9
2017-08-22T09:33:24.108Z,1016.87
2017-08-22T09:34:34.191Z,1016.89
2017-08-22T09:35:44.114Z,1016.92
2017-08-22T09:36:54.042Z,1016.92
2017-08-22T09:38:04.262Z,1016.9
2017-08-22T09:39:13.565Z,1016.91
2017-08-22T09:40:24.165Z,1016.89
2017-08-22T09:41:34.111Z,1016.89
2017-08-22T09:42:44.382Z,1016.89
2017-08-22T09:43:54.319Z,1016.88
2017-08-22T09:45:03.922Z,1016.86
2017-08-22T09:46:14.202Z,1016.85
2017-08-22T09:47:23.846Z,1016.88
2017-08-22T09:48:34.094Z,1016.83
2017-08-22T09:49:44.346Z,1016.84
2017-08-22T09:50:54.277Z,1016.86
2017-08-22T09:52:04.041Z,1016.8
2017-08-22T09:53:13.660Z,1016.82
2017-08-22T09:54:23.647Z,1016.84
2017-08-22T09:55:33.263Z,1016.82
2017-08-22T09:56:43.486Z,1016.79
2017-08-22T09:57:53.790Z,1016.83
2017-08-22T09:59:03.716Z,1016.85
2017-08-22T10:00:13.655Z,1016.82
2017-08-22T10:01:23.572Z,1016.8
2017-08-22T10:02:33.487Z,1016.8
2017-08-22T10:03:43.512Z,1016.81
2017-08-22T10:04:53.152Z,1016.8
2017-08-22T10:06:03.384Z,1016.81
2017-08-22T10:07:13.628Z,1016.81
2017-08-22T10:08:23.245Z,1016.82
2017-08-22T10:09:32.266Z,1016.81
2017-08-22T10:10:42.509Z,1016.83
2017-08-22T10:11:52.134Z,1016.83
2017-08-22T10:13:02.113Z,1016.8
2017-08-22T10:14:11.722Z,1016.8
2017-08-22T10:15:21.821Z,1016.76
2017-08-22T10:16:31.780Z,1016.74
2017-08-22T10:17:41.705Z,1016.76
2017-08-22T10:18:51.627Z,1016.71
2017-08-22T10:20:01.559Z,1016.69
2017-08-22T10:21:11.969Z,1016.69
2017-08-22T10:22:22.219Z,1016.64
2017-08-22T10:23:31.555Z,1016.65
2017-08-22T10:24:41.195Z,1016.7
2017-08-22T10:25:51.448Z,1016.66
2017-08-22T10:27:01.219Z,1016.67
2017-08-22T10:28:11.130Z,1016.66
2017-08-22T10:29:20.750Z,1016.63
2017-08-22T10:30:30.375Z,1016.67
2017-08-22T10:31:40.317Z,1016.66
2017-08-22T10:32:49.977Z,1016.66
2017-08-22T10:34:00.219Z,1016.65
2017-08-22T10:35:10.162Z,1016.64
2017-08-22T10:36:20.075Z,1016.67
2017-08-22T10:37:30.317Z,1016.62
2017-08-22T10:38:40.052Z,1016.68
2017-08-22T10:39:49.685Z,1016.68
2017-08-22T10:40:59.932Z,1016.66
2017-08-22T10:42:09.874Z,1016.6
2017-08-22T10:43:19.782Z,1016.59
2017-08-22T10:44:29.701Z,1016.56
2017-08-22T10:45:39.628Z,1016.56
2017-08-22T10:46:49.263Z,1016.56
2017-08-22T10:47:59.199Z,1016.54
2017-08-22T10:49:09.458Z,1016.52
2017-08-22T10:50:19.709Z,1016.47
2017-08-22T10:51:29.662Z,1016.48
2017-08-22T10:52:39.585Z,1016.47
2017-08-22T10:53:49.519Z,1016.46
2017-08-22T10:54:59.460Z,1016.44
2017-08-22T10:56:09.524Z,1016.46
2017-08-22T10:57:19.764Z,1016.41
2017-08-22T10:58:29.380Z,1016.42
2017-08-22T10:59:38.991Z,1016.42
2017-08-22T11:00:48.924Z,1016.39
2017-08-22T11:01:58.545Z,1016.39
2017-08-22T11:03:08.789Z,1016.41
2017-08-22T11:04:19.042Z,1016.4
2017-08-22T11:05:29.265Z,1016.38
2017-08-22T11:06:39.485Z,1016.35
2017-08-22T11:07:49.728Z,1016.37
2017-08-22T11:08:59.637Z,1016.33
2017-08-22T11:10:09.272Z,1016.37
2017-08-22T11:11:18.600Z,1016.32
2017-08-22T11:12:28.838Z,1016.28
2017-08-22T11:13:39.166Z,1016.28
2017-08-22T11:14:49.087Z,1016.26
2017-08-22T11:15:59.009Z,1016.28
2017-08-22T11:17:09.274Z,1016.26
2017-08-22T11:18:18.886Z,1016.27
2017-08-22T11:19:28.913Z,1016.27
2017-08-22T11:20:39.138Z,1016.24
2017-08-22T11:21:49.377Z,1016.23
2017-08-22T11:22:59.296Z,1016.23
2017-08-22T11:24:09.230Z,1016.21
2017-08-22T11:25:19.254Z,1016.18
2017-08-22T11:26:29.174Z,1016.22
2017-08-22T11:27:38.820Z,1016.19
2017-08-22T11:28:49.217Z,1016.18
2017-08-22T11:29:59.196Z,1016.19
2017-08-22T11:31:09.305Z,1016.2
2017-08-22T11:32:19.533Z,1016.23
2017-08-22T11:33:29.760Z,1016.19
2017-08-22T11:34:39.400Z,1016.16
2017-08-22T11:35:49.663Z,1016.15
2017-08-22T11:36:59.634Z,1016.1
2017-08-22T11:38:09.862Z,1016.09
2017-08-22T11:39:20.094Z,1016.11
2017-08-22T11:40:29.725Z,1016.1
2017-08-22T11:41:39.646Z,1016.09
2017-08-22T11:42:49.283Z,1016.1
2017-08-22T11:43:58.604Z,1016.13
2017-08-22T11:45:08.217Z,1016.07
2017-08-22T11:46:18.136Z,1016.07
2017-08-22T11:47:28.097Z,1016.05
2017-08-22T11:48:38.084Z,1016.04
2017-08-22T11:49:47.464Z,1016.05
2017-08-22T11:50:57.688Z,1016.1
2017-08-22T11:52:07.303Z,1016.05
2017-08-22T11:53:17.233Z,1016.04
2017-08-22T11:54:27.335Z,1016.07
2017-08-22T11:55:36.989Z,1016.04
2017-08-22T11:56:46.612Z,1016.03
2017-08-22T11:57:56.575Z,1015.98
2017-08-22T11:59:07.187Z,1015.97
2017-08-22T12:00:17.510Z,1015.96
2017-08-22T12:01:27.157Z,1015.95
2017-08-22T12:02:37.083Z,1015.91
2017-08-22T12:03:47.011Z,1015.89
2017-08-22T12:04:56.644Z,1015.88
2017-08-22T12:06:07.031Z,1015.87
2017-08-22T12:07:17.255Z,1015.92
2017-08-22T12:08:27.481Z,1015.93
2017-08-22T12:09:37.704Z,1015.95
2017-08-22T12:10:47.017Z,1015.91
2017-08-22T12:11:56.375Z,1015.91
2017-08-22T12:13:06.651Z,1015.89
2017-08-22T12:14:16.273Z,1015.9
2017-08-22T12:15:26.516Z,1015.92
2017-08-22T12:16:36.456Z,1015.88
2017-08-22T12:17:46.979Z,1015.89
2017-08-22T12:18:56.921Z,1015.87
2017-08-22T12:20:06.534Z,1015.8
2017-08-22T12:21:16.160Z,1015.76
2017-08-22T12:22:25.786Z,1015.81
2017-08-22T12:23:36.063Z,1015.77
2017-08-22T12:24:45.993Z,1015.78
2017-08-22T12:25:56.235Z,1015.76
2017-08-22T12:27:05.550Z,1015.85
2017-08-22T12:28:15.189Z,1015.77
2017-08-22T12:29:24.955Z,1015.78
2017-08-22T12:30:34.878Z,1015.77
2017-08-22T12:31:44.804Z,1015.75
2017-08-22T12:32:54.715Z,1015.71
2017-08-22T12:34:04.628Z,1015.76
2017-08-22T12:35:14.617Z,1015.73
2017-08-22T12:36:24.551Z,1015.75
2017-08-22T12:37:34.164Z,1015.78
2017-08-22T12:38:43.493Z,1015.78
2017-08-22T12:39:53.412Z,1015.84
2017-08-22T12:41:03.485Z,1015.82
2017-08-22T12:42:13.411Z,1015.84
2017-08-22T12:43:23.331Z,1015.78
2017-08-22T12:44:33.265Z,1015.87
2017-08-22T12:45:42.269Z,1015.89
2017-08-22T12:46:52.514Z,1015.82
2017-08-22T12:48:02.430Z,1015.79
2017-08-22T12:49:12.361Z,1015.76
2017-08-22T12:50:22.293Z,1015.75
2017-08-22T12:51:32.539Z,1015.73
2017-08-22T12:52:42.547Z,1015.75
2017-08-22T12:53:52.157Z,1015.72
2017-08-22T12:55:02.073Z,1015.69
2017-08-22T12:56:11.993Z,1015.7
2017-08-22T12:57:21.604Z,1015.72
2017-08-22T12:58:31.680Z,1015.66
2017-08-22T12:59:41.367Z,1015.63
2017-08-22T13:00:51.027Z,1015.67
2017-08-22T13:02:00.960Z,1015.68
2017-08-22T13:03:10.906Z,1015.7
2017-08-22T13:04:21.323Z,1015.76
2017-08-22T13:05:31.241Z,1015.72
2017-08-22T13:06:41.173Z,1015.73
2017-08-22T13:07:51.106Z,1015.73
2017-08-22T13:09:00.433Z,1015.73
2017-08-22T13:10:10.156Z,1015.7
2017-08-22T13:11:19.455Z,1015.69
2017-08-22T13:12:29.078Z,1015.71
2017-08-22T13:13:39.374Z,1015.72
2017-08-22T13:14:49.588Z,1015.7
2017-08-22T13:15:59.249Z,1015.73
2017-08-22T13:17:09.183Z,1015.67
2017-08-22T13:18:18.797Z,1015.61
2017-08-22T13:19:29.023Z,1015.63
2017-08-22T13:20:38.943Z,1015.62
2017-08-22T13:21:49.317Z,1015.59
2017-08-22T13:22:59.247Z,1015.57
2017-08-22T13:24:09.171Z,1015.59
2017-08-22T13:25:18.783Z,1015.63
2017-08-22T13:26:29.046Z,1015.57
2017-08-22T13:27:39.071Z,1015.6
2017-08-22T13:28:49.028Z,1015.59
2017-08-22T13:29:59.306Z,1015.53
2017-08-22T13:31:09.263Z,1015.5
2017-08-22T13:32:18.601Z,1015.5
2017-08-22T13:33:28.525Z,1015.51
2017-08-22T13:34:38.473Z,1015.47
2017-08-22T13:35:48.407Z,1015.48
2017-08-22T13:36:57.441Z,1015.46
2017-08-22T13:38:07.358Z,1015.44
2017-08-22T13:39:17.592Z,1015.44
2017-08-22T13:40:27.831Z,1015.51
2017-08-22T13:41:37.770Z,1015.51
2017-08-22T13:42:47.413Z,1015.51
2017-08-22T13:43:57.045Z,1015.46
2017-08-22T13:45:07.125Z,1015.49
2017-08-22T13:46:17.356Z,1015.55
2017-08-22T13:47:27.309Z,1015.49
2017-08-22T13:48:37.536Z,1015.43
2017-08-22T13:49:46.859Z,1015.45
2017-08-22T13:50:56.843Z,1015.48
2017-08-22T13:52:06.446Z,1015.43
2017-08-22T13:53:16.052Z,1015.47
2017-08-22T13:54:26.027Z,1015.43
2017-08-22T13:55:35.971Z,1015.45
2017-08-22T13:56:45.655Z,1015.45
2017-08-22T13:57:55.897Z,1015.45
2017-08-22T13:59:05.255Z,1015.42
2017-08-22T14:00:14.245Z,1015.41
2017-08-22T14:01:23.863Z,1015.39
2017-08-22T14:02:34.126Z,1015.42
2017-08-22T14:03:43.755Z,1015.42
2017-08-22T14:04:53.991Z,1015.43
2017-08-22T14:06:03.911Z,1015.36
2017-08-22T14:07:14.201Z,1015.36
2017-08-22T14:08:24.300Z,1015.37
2017-08-22T14:09:34.536Z,1015.33
2017-08-22T14:10:44.158Z,1015.3
2017-08-22T14:11:54.394Z,1015.29